sensor_id;sensor_type;location;lat;lon;timestamp;pressure;altitude;pressure_sealevel;temperature;humidity
12868;BME280;33517;49.866;8.320;2022-12-11T00:02:00;100007.25;;;-2.61;91.11
12868;BME280;33517;49.866;8.320;2022-12-11T00:04:52;100010.84;;;-2.49;90.98
12868;BME280;33517;49.866;8.320;2022-12-11T00:07:44;100007.69;;;-2.40;91.53
12868;BME280;33517;49.866;8.320;2022-12-11T00:10:36;100003.81;;;-2.33;91.06
12868;BME280;33517;49.866;8.320;2022-12-11T00:13:28;100011.81;;;-2.24;91.44
12868;BME280;33517;49.866;8.320;2022-12-11T00:16:20;100005.91;;;-2.12;91.46
12868;BME280;33517;49.866;8.320;2022-12-11T00:19:13;100002.56;;;-2.00;91.26
12868;BME280;33517;49.866;8.320;2022-12-11T00:22:05;99993.34;;;-1.90;91.09
12868;BME280;33517;49.866;8.320;2022-12-11T00:24:58;99996.16;;;-1.80;91.09
12868;BME280;33517;49.866;8.320;2022-12-11T00:27:50;99995.56;;;-1.71;91.01
12868;BME280;33517;49.866;8.320;2022-12-11T00:30:42;100003.53;;;-1.61;90.98
12868;BME280;33517;49.866;8.320;2022-12-11T00:33:34;99999.47;;;-1.51;90.85
12868;BME280;33517;49.866;8.320;2022-12-11T00:36:27;99994.59;;;-1.43;91.01
12868;BME280;33517;49.866;8.320;2022-12-11T00:39:19;99997.09;;;-1.42;90.49
12868;BME280;33517;49.866;8.320;2022-12-11T00:42:11;99995.66;;;-1.46;90.80
12868;BME280;33517;49.866;8.320;2022-12-11T00:45:03;100007.09;;;-1.50;90.18
12868;BME280;33517;49.866;8.320;2022-12-11T00:47:55;99999.00;;;-1.58;90.63
12868;BME280;33517;49.866;8.320;2022-12-11T00:50:46;100000.03;;;-1.60;90.37
12868;BME280;33517;49.866;8.320;2022-12-11T00:53:40;100006.66;;;-1.56;90.10
12868;BME280;33517;49.866;8.320;2022-12-11T00:56:32;100002.94;;;-1.52;90.60
12868;BME280;33517;49.866;8.320;2022-12-11T00:59:23;99998.31;;;-1.47;90.71
12868;BME280;33517;49.866;8.320;2022-12-11T01:02:15;99996.28;;;-1.42;90.91
12868;BME280;33517;49.866;8.320;2022-12-11T01:05:08;100003.69;;;-1.38;90.13
12868;BME280;33517;49.866;8.320;2022-12-11T01:08:00;100002.50;;;-1.32;90.27
12868;BME280;33517;49.866;8.320;2022-12-11T01:11:02;100007.22;;;-1.39;90.36
12868;BME280;33517;49.866;8.320;2022-12-11T01:13:54;100006.28;;;-1.38;90.31
12868;BME280;33517;49.866;8.320;2022-12-11T01:16:45;99999.69;;;-1.29;90.54
12868;BME280;33517;49.866;8.320;2022-12-11T01:19:37;99999.81;;;-1.18;90.86
12868;BME280;33517;49.866;8.320;2022-12-11T01:22:29;99994.88;;;-1.09;90.34
12868;BME280;33517;49.866;8.320;2022-12-11T01:25:21;99992.59;;;-1.01;89.95
12868;BME280;33517;49.866;8.320;2022-12-11T01:28:15;99999.34;;;-0.98;90.50
12868;BME280;33517;49.866;8.320;2022-12-11T01:31:08;99995.50;;;-0.93;89.95
12868;BME280;33517;49.866;8.320;2022-12-11T01:34:00;99994.47;;;-0.90;89.89
12868;BME280;33517;49.866;8.320;2022-12-11T01:36:52;99996.75;;;-0.85;90.43
12868;BME280;33517;49.866;8.320;2022-12-11T01:39:43;99991.06;;;-0.78;90.39
12868;BME280;33517;49.866;8.320;2022-12-11T01:42:36;99997.38;;;-0.69;90.23
12868;BME280;33517;49.866;8.320;2022-12-11T01:45:37;99993.44;;;-0.62;89.94
12868;BME280;33517;49.866;8.320;2022-12-11T01:48:30;99992.78;;;-0.53;90.45
12868;BME280;33517;49.866;8.320;2022-12-11T01:51:23;99996.41;;;-0.43;89.95
12868;BME280;33517;49.866;8.320;2022-12-11T01:54:16;99999.28;;;-0.35;90.54
12868;BME280;33517;49.866;8.320;2022-12-11T01:57:11;99992.84;;;-0.30;90.51
12868;BME280;33517;49.866;8.320;2022-12-11T02:00:05;99994.06;;;-0.23;89.83
12868;BME280;33517;49.866;8.320;2022-12-11T02:02:58;99996.47;;;-0.20;90.31
12868;BME280;33517;49.866;8.320;2022-12-11T02:05:50;99994.19;;;-0.24;89.87
12868;BME280;33517;49.866;8.320;2022-12-11T02:08:42;99989.84;;;-0.24;90.30
12868;BME280;33517;49.866;8.320;2022-12-11T02:11:42;99997.59;;;-0.24;89.57
12868;BME280;33517;49.866;8.320;2022-12-11T02:14:41;99990.56;;;-0.22;89.59
12868;BME280;33517;49.866;8.320;2022-12-11T02:17:40;99995.75;;;-0.22;89.55
12868;BME280;33517;49.866;8.320;2022-12-11T02:20:37;99998.22;;;-0.20;89.56
12868;BME280;33517;49.866;8.320;2022-12-11T02:24:06;100005.13;;;-0.21;90.11
12868;BME280;33517;49.866;8.320;2022-12-11T02:27:35;99998.22;;;-0.20;89.70
12868;BME280;33517;49.866;8.320;2022-12-11T02:30:29;100006.69;;;-0.18;89.26
12868;BME280;33517;49.866;8.320;2022-12-11T02:33:29;100008.56;;;-0.20;89.41
12868;BME280;33517;49.866;8.320;2022-12-11T02:36:25;100012.09;;;-0.21;89.88
12868;BME280;33517;49.866;8.320;2022-12-11T02:39:20;100009.91;;;-0.27;89.48
12868;BME280;33517;49.866;8.320;2022-12-11T02:42:14;100008.38;;;-0.30;90.15
12868;BME280;33517;49.866;8.320;2022-12-11T02:45:08;100000.63;;;-0.30;90.02
12868;BME280;33517;49.866;8.320;2022-12-11T02:48:02;100002.69;;;-0.35;89.89
12868;BME280;33517;49.866;8.320;2022-12-11T02:50:57;100001.88;;;-0.35;90.26
12868;BME280;33517;49.866;8.320;2022-12-11T02:53:51;100001.75;;;-0.34;89.94
12868;BME280;33517;49.866;8.320;2022-12-11T02:56:47;99994.59;;;-0.30;90.41
12868;BME280;33517;49.866;8.320;2022-12-11T02:59:43;99987.25;;;-0.24;90.85
12868;BME280;33517;49.866;8.320;2022-12-11T03:02:36;99991.28;;;-0.20;89.76
12868;BME280;33517;49.866;8.320;2022-12-11T03:05:29;99993.56;;;-0.28;90.05
12868;BME280;33517;49.866;8.320;2022-12-11T03:08:21;99990.69;;;-0.36;90.07
12868;BME280;33517;49.866;8.320;2022-12-11T03:11:13;99993.19;;;-0.47;89.80
12868;BME280;33517;49.866;8.320;2022-12-11T03:14:05;100001.59;;;-0.56;90.23
12868;BME280;33517;49.866;8.320;2022-12-11T03:17:04;99991.78;;;-0.63;90.26
12868;BME280;33517;49.866;8.320;2022-12-11T03:20:01;99996.22;;;-0.65;90.61
12868;BME280;33517;49.866;8.320;2022-12-11T03:23:03;100002.53;;;-0.69;89.93
12868;BME280;33517;49.866;8.320;2022-12-11T03:26:02;100002.84;;;-0.74;90.27
12868;BME280;33517;49.866;8.320;2022-12-11T03:28:57;100005.72;;;-0.78;90.26
12868;BME280;33517;49.866;8.320;2022-12-11T03:31:54;99998.28;;;-0.83;89.69
12868;BME280;33517;49.866;8.320;2022-12-11T03:34:50;99997.56;;;-0.85;89.93
12868;BME280;33517;49.866;8.320;2022-12-11T03:37:46;99998.41;;;-0.84;89.48
12868;BME280;33517;49.866;8.320;2022-12-11T03:40:42;99999.53;;;-0.88;90.12
12868;BME280;33517;49.866;8.320;2022-12-11T03:43:37;100000.06;;;-0.96;89.23
12868;BME280;33517;49.866;8.320;2022-12-11T03:46:32;100002.22;;;-1.03;89.66
12868;BME280;33517;49.866;8.320;2022-12-11T03:49:27;100008.72;;;-1.10;89.87
12868;BME280;33517;49.866;8.320;2022-12-11T03:52:19;100004.06;;;-1.17;90.30
12868;BME280;33517;49.866;8.320;2022-12-11T03:55:15;100010.63;;;-1.26;90.16
12868;BME280;33517;49.866;8.320;2022-12-11T03:58:08;100010.84;;;-1.29;90.63
12868;BME280;33517;49.866;8.320;2022-12-11T04:01:00;100005.69;;;-1.29;90.15
12868;BME280;33517;49.866;8.320;2022-12-11T04:03:52;100007.16;;;-1.25;90.03
12868;BME280;33517;49.866;8.320;2022-12-11T04:06:44;100002.22;;;-1.15;90.88
12868;BME280;33517;49.866;8.320;2022-12-11T04:09:36;100005.09;;;-1.07;90.24
12868;BME280;33517;49.866;8.320;2022-12-11T04:12:28;100000.66;;;-1.05;90.50
12868;BME280;33517;49.866;8.320;2022-12-11T04:15:21;99992.28;;;-1.09;89.96
12868;BME280;33517;49.866;8.320;2022-12-11T04:18:13;99992.50;;;-1.12;89.42
12868;BME280;33517;49.866;8.320;2022-12-11T04:21:22;99986.91;;;-1.18;89.49
12868;BME280;33517;49.866;8.320;2022-12-11T04:24:32;99995.03;;;-1.24;89.63
12868;BME280;33517;49.866;8.320;2022-12-11T04:27:24;99996.91;;;-1.26;89.34
12868;BME280;33517;49.866;8.320;2022-12-11T04:30:35;100004.75;;;-1.28;89.76
12868;BME280;33517;49.866;8.320;2022-12-11T04:33:27;100003.44;;;-1.21;89.79
12868;BME280;33517;49.866;8.320;2022-12-11T04:36:19;100001.06;;;-1.11;90.17
12868;BME280;33517;49.866;8.320;2022-12-11T04:39:11;100001.69;;;-1.08;89.91
12868;BME280;33517;49.866;8.320;2022-12-11T04:42:02;99999.72;;;-1.04;90.43
12868;BME280;33517;49.866;8.320;2022-12-11T04:44:54;99995.28;;;-1.02;90.56
12868;BME280;33517;49.866;8.320;2022-12-11T04:47:47;99993.13;;;-1.08;89.81
12868;BME280;33517;49.866;8.320;2022-12-11T04:50:39;99990.66;;;-1.10;89.87
12868;BME280;33517;49.866;8.320;2022-12-11T04:53:31;99986.63;;;-1.14;90.18
12868;BME280;33517;49.866;8.320;2022-12-11T04:56:23;99987.22;;;-1.23;89.85
12868;BME280;33517;49.866;8.320;2022-12-11T04:59:15;99990.94;;;-1.27;90.23
12868;BME280;33517;49.866;8.320;2022-12-11T05:02:07;99982.88;;;-1.22;90.49
12868;BME280;33517;49.866;8.320;2022-12-11T05:05:00;99988.47;;;-1.16;90.29
12868;BME280;33517;49.866;8.320;2022-12-11T05:07:52;99990.66;;;-1.10;90.37
12868;BME280;33517;49.866;8.320;2022-12-11T05:10:44;99991.03;;;-1.03;91.10
12868;BME280;33517;49.866;8.320;2022-12-11T05:13:36;99991.78;;;-1.01;91.05
12868;BME280;33517;49.866;8.320;2022-12-11T05:16:28;99987.16;;;-0.96;91.01
12868;BME280;33517;49.866;8.320;2022-12-11T05:19:20;99978.56;;;-0.97;90.66
12868;BME280;33517;49.866;8.320;2022-12-11T05:22:14;99976.09;;;-0.98;90.43
12868;BME280;33517;49.866;8.320;2022-12-11T05:25:06;99972.56;;;-0.97;91.10
12868;BME280;33517;49.866;8.320;2022-12-11T05:27:58;99976.72;;;-0.95;90.35
12868;BME280;33517;49.866;8.320;2022-12-11T05:30:54;99973.00;;;-0.90;90.25
12868;BME280;33517;49.866;8.320;2022-12-11T05:33:46;99962.34;;;-0.86;90.81
12868;BME280;33517;49.866;8.320;2022-12-11T05:36:39;99968.22;;;-0.84;90.61
12868;BME280;33517;49.866;8.320;2022-12-11T05:39:32;99957.81;;;-0.82;90.97
12868;BME280;33517;49.866;8.320;2022-12-11T05:42:24;99955.94;;;-0.80;91.04
12868;BME280;33517;49.866;8.320;2022-12-11T05:45:16;99964.19;;;-0.75;90.83
12868;BME280;33517;49.866;8.320;2022-12-11T05:48:08;99967.09;;;-0.67;90.84
12868;BME280;33517;49.866;8.320;2022-12-11T05:51:01;99966.69;;;-0.61;90.91
12868;BME280;33517;49.866;8.320;2022-12-11T05:53:54;99968.72;;;-0.54;90.82
12868;BME280;33517;49.866;8.320;2022-12-11T05:56:48;99951.38;;;-0.52;91.18
12868;BME280;33517;49.866;8.320;2022-12-11T05:59:40;99955.34;;;-0.48;90.68
12868;BME280;33517;49.866;8.320;2022-12-11T06:02:33;99962.69;;;-0.42;90.46
12868;BME280;33517;49.866;8.320;2022-12-11T06:05:25;99960.03;;;-0.40;90.56
12868;BME280;33517;49.866;8.320;2022-12-11T06:08:17;99961.06;;;-0.43;90.53
12868;BME280;33517;49.866;8.320;2022-12-11T06:11:11;99960.09;;;-0.42;90.75
12868;BME280;33517;49.866;8.320;2022-12-11T06:14:04;99957.88;;;-0.46;90.76
12868;BME280;33517;49.866;8.320;2022-12-11T06:16:56;99951.25;;;-0.50;91.14
12868;BME280;33517;49.866;8.320;2022-12-11T06:19:48;99944.94;;;-0.46;90.73
12868;BME280;33517;49.866;8.320;2022-12-11T06:22:39;99939.78;;;-0.46;90.83
12868;BME280;33517;49.866;8.320;2022-12-11T06:25:31;99930.78;;;-0.53;91.31
12868;BME280;33517;49.866;8.320;2022-12-11T06:28:23;99931.00;;;-0.56;92.26
12868;BME280;33517;49.866;8.320;2022-12-11T06:31:17;99927.75;;;-0.47;92.10
12868;BME280;33517;49.866;8.320;2022-12-11T06:34:11;99925.25;;;-0.36;91.41
12868;BME280;33517;49.866;8.320;2022-12-11T06:37:03;99936.66;;;-0.39;91.88
12868;BME280;33517;49.866;8.320;2022-12-11T06:39:55;99937.03;;;-0.32;91.56
12868;BME280;33517;49.866;8.320;2022-12-11T06:42:47;99941.88;;;-0.28;91.62
12868;BME280;33517;49.866;8.320;2022-12-11T06:45:39;99936.59;;;-0.26;91.20
12868;BME280;33517;49.866;8.320;2022-12-11T06:48:32;99939.19;;;-0.26;90.91
12868;BME280;33517;49.866;8.320;2022-12-11T06:51:24;99938.34;;;-0.27;91.39
12868;BME280;33517;49.866;8.320;2022-12-11T06:54:16;99938.69;;;-0.31;91.26
12868;BME280;33517;49.866;8.320;2022-12-11T06:57:08;99933.53;;;-0.31;90.64
12868;BME280;33517;49.866;8.320;2022-12-11T07:00:00;99931.97;;;-0.34;90.85
12868;BME280;33517;49.866;8.320;2022-12-11T07:02:52;99941.16;;;-0.30;91.34
12868;BME280;33517;49.866;8.320;2022-12-11T07:05:45;99929.88;;;-0.29;91.16
12868;BME280;33517;49.866;8.320;2022-12-11T07:08:37;99934.00;;;-0.26;91.21
12868;BME280;33517;49.866;8.320;2022-12-11T07:11:29;99932.56;;;-0.30;91.18
12868;BME280;33517;49.866;8.320;2022-12-11T07:14:21;99932.81;;;-0.33;90.81
12868;BME280;33517;49.866;8.320;2022-12-11T07:17:12;99933.13;;;-0.38;90.59
12868;BME280;33517;49.866;8.320;2022-12-11T07:20:05;99934.78;;;-0.37;91.13
12868;BME280;33517;49.866;8.320;2022-12-11T07:23:00;99935.59;;;-0.36;90.81
12868;BME280;33517;49.866;8.320;2022-12-11T07:25:51;99940.44;;;-0.32;91.19
12868;BME280;33517;49.866;8.320;2022-12-11T07:28:43;99937.31;;;-0.24;90.74
12868;BME280;33517;49.866;8.320;2022-12-11T07:31:35;99945.25;;;-0.15;91.28
12868;BME280;33517;49.866;8.320;2022-12-11T07:34:27;99942.22;;;-0.09;90.98
12868;BME280;33517;49.866;8.320;2022-12-11T07:37:19;99953.88;;;-0.03;90.96
12868;BME280;33517;49.866;8.320;2022-12-11T07:40:12;99951.78;;;0.02;90.19
12868;BME280;33517;49.866;8.320;2022-12-11T07:43:04;99956.03;;;0.03;90.96
12868;BME280;33517;49.866;8.320;2022-12-11T07:45:59;99964.28;;;0.08;90.71
12868;BME280;33517;49.866;8.320;2022-12-11T07:48:52;99966.31;;;0.16;90.51
12868;BME280;33517;49.866;8.320;2022-12-11T07:51:44;99955.66;;;0.20;90.10
12868;BME280;33517;49.866;8.320;2022-12-11T07:54:36;99963.56;;;0.30;90.66
12868;BME280;33517;49.866;8.320;2022-12-11T07:57:29;99962.28;;;0.35;90.09
12868;BME280;33517;49.866;8.320;2022-12-11T08:00:21;99964.88;;;0.35;90.16
12868;BME280;33517;49.866;8.320;2022-12-11T08:03:13;99966.28;;;0.28;89.94
12868;BME280;33517;49.866;8.320;2022-12-11T08:06:05;99971.78;;;0.24;90.72
12868;BME280;33517;49.866;8.320;2022-12-11T08:08:58;99971.00;;;0.34;90.13
12868;BME280;33517;49.866;8.320;2022-12-11T08:11:50;99971.88;;;0.46;89.68
12868;BME280;33517;49.866;8.320;2022-12-11T08:14:44;99977.41;;;0.52;89.37
12868;BME280;33517;49.866;8.320;2022-12-11T08:17:36;99967.56;;;0.57;89.95
12868;BME280;33517;49.866;8.320;2022-12-11T08:20:28;99981.47;;;0.67;89.40
12868;BME280;33517;49.866;8.320;2022-12-11T08:23:20;99980.19;;;0.73;89.63
12868;BME280;33517;49.866;8.320;2022-12-11T08:26:13;99976.94;;;0.82;89.52
12868;BME280;33517;49.866;8.320;2022-12-11T08:29:05;99981.41;;;0.91;89.84
12868;BME280;33517;49.866;8.320;2022-12-11T08:31:58;99981.88;;;0.96;88.73
12868;BME280;33517;49.866;8.320;2022-12-11T08:34:50;99983.56;;;1.08;89.56
12868;BME280;33517;49.866;8.320;2022-12-11T08:37:42;99983.09;;;1.14;88.32
12868;BME280;33517;49.866;8.320;2022-12-11T08:40:34;99975.78;;;1.08;88.73
12868;BME280;33517;49.866;8.320;2022-12-11T08:43:26;99978.97;;;1.23;89.17
12868;BME280;33517;49.866;8.320;2022-12-11T08:46:20;99968.72;;;1.32;88.65
12868;BME280;33517;49.866;8.320;2022-12-11T08:49:13;99979.13;;;1.54;87.89
12868;BME280;33517;49.866;8.320;2022-12-11T08:52:05;99973.91;;;1.65;88.19
12868;BME280;33517;49.866;8.320;2022-12-11T08:54:57;99967.19;;;1.85;87.16
12868;BME280;33517;49.866;8.320;2022-12-11T08:57:50;99969.47;;;2.10;87.07
12868;BME280;33517;49.866;8.320;2022-12-11T09:00:41;99959.31;;;2.50;86.36
12868;BME280;33517;49.866;8.320;2022-12-11T09:03:33;99947.03;;;3.53;84.55
12868;BME280;33517;49.866;8.320;2022-12-11T09:06:28;99943.16;;;4.74;82.77
12868;BME280;33517;49.866;8.320;2022-12-11T09:09:20;99931.34;;;6.77;78.46
12868;BME280;33517;49.866;8.320;2022-12-11T09:12:11;99945.31;;;7.11;75.30
12868;BME280;33517;49.866;8.320;2022-12-11T09:15:05;99946.63;;;6.46;75.99
12868;BME280;33517;49.866;8.320;2022-12-11T09:17:57;99958.06;;;5.46;77.42
12868;BME280;33517;49.866;8.320;2022-12-11T09:20:57;99953.38;;;5.04;77.41
12868;BME280;33517;49.866;8.320;2022-12-11T09:23:53;99956.19;;;4.83;78.45
12868;BME280;33517;49.866;8.320;2022-12-11T09:26:45;99962.03;;;5.04;78.86
12868;BME280;33517;49.866;8.320;2022-12-11T09:29:38;99957.50;;;5.06;77.53
12868;BME280;33517;49.866;8.320;2022-12-11T09:32:30;99958.22;;;4.99;76.43
12868;BME280;33517;49.866;8.320;2022-12-11T09:35:21;99955.00;;;4.39;78.13
12868;BME280;33517;49.866;8.320;2022-12-11T09:38:13;99951.97;;;4.34;78.45
12868;BME280;33517;49.866;8.320;2022-12-11T09:41:25;99954.59;;;4.25;77.48
12868;BME280;33517;49.866;8.320;2022-12-11T09:44:28;99958.50;;;4.00;78.26
12868;BME280;33517;49.866;8.320;2022-12-11T09:47:26;99947.84;;;4.13;78.53
12868;BME280;33517;49.866;8.320;2022-12-11T09:50:22;99946.19;;;4.12;78.22
12868;BME280;33517;49.866;8.320;2022-12-11T09:53:19;99950.66;;;3.91;77.68
12868;BME280;33517;49.866;8.320;2022-12-11T09:56:20;99959.81;;;3.36;76.27
12868;BME280;33517;49.866;8.320;2022-12-11T09:59:22;99950.69;;;2.70;77.67
12868;BME280;33517;49.866;8.320;2022-12-11T10:02:24;99954.88;;;2.41;79.02
12868;BME280;33517;49.866;8.320;2022-12-11T10:05:27;99952.41;;;2.28;79.55
12868;BME280;33517;49.866;8.320;2022-12-11T10:08:29;99954.31;;;1.95;80.22
12868;BME280;33517;49.866;8.320;2022-12-11T10:11:40;99940.72;;;2.34;81.45
12868;BME280;33517;49.866;8.320;2022-12-11T10:14:46;99939.16;;;2.42;80.02
12868;BME280;33517;49.866;8.320;2022-12-11T10:17:43;99937.41;;;2.32;79.60
12868;BME280;33517;49.866;8.320;2022-12-11T10:20:36;99935.63;;;2.12;81.11
12868;BME280;33517;49.866;8.320;2022-12-11T10:23:39;99940.56;;;2.46;80.86
12868;BME280;33517;49.866;8.320;2022-12-11T10:26:37;99936.91;;;2.38;80.11
12868;BME280;33517;49.866;8.320;2022-12-11T10:29:30;99938.88;;;2.25;80.26
12868;BME280;33517;49.866;8.320;2022-12-11T10:32:26;99941.25;;;2.17;80.80
12868;BME280;33517;49.866;8.320;2022-12-11T10:35:30;99940.63;;;2.24;80.99
12868;BME280;33517;49.866;8.320;2022-12-11T10:38:27;99936.09;;;1.74;81.68
12868;BME280;33517;49.866;8.320;2022-12-11T10:41:23;99934.91;;;1.56;82.28
12868;BME280;33517;49.866;8.320;2022-12-11T10:44:18;99922.63;;;1.69;82.84
12868;BME280;33517;49.866;8.320;2022-12-11T10:47:12;99920.63;;;1.72;83.07
12868;BME280;33517;49.866;8.320;2022-12-11T10:50:05;99907.66;;;1.72;82.79
12868;BME280;33517;49.866;8.320;2022-12-11T10:52:57;99899.25;;;1.91;83.53
12868;BME280;33517;49.866;8.320;2022-12-11T10:55:49;99894.91;;;1.80;82.67
12868;BME280;33517;49.866;8.320;2022-12-11T10:58:48;99901.19;;;2.10;82.40
12868;BME280;33517;49.866;8.320;2022-12-11T11:01:45;99897.47;;;2.44;81.65
12868;BME280;33517;49.866;8.320;2022-12-11T11:04:40;99898.63;;;2.51;81.26
12868;BME280;33517;49.866;8.320;2022-12-11T11:07:34;99888.03;;;2.84;80.40
12868;BME280;33517;49.866;8.320;2022-12-11T11:10:26;99878.03;;;3.10;80.17
12868;BME280;33517;49.866;8.320;2022-12-11T11:13:19;99887.50;;;3.20;80.34
12868;BME280;33517;49.866;8.320;2022-12-11T11:16:14;99887.94;;;3.25;79.76
12868;BME280;33517;49.866;8.320;2022-12-11T11:19:17;99884.47;;;3.15;79.46
12868;BME280;33517;49.866;8.320;2022-12-11T11:22:13;99888.34;;;3.21;79.01
12868;BME280;33517;49.866;8.320;2022-12-11T11:25:15;99892.47;;;3.23;79.24
12868;BME280;33517;49.866;8.320;2022-12-11T11:28:17;99894.06;;;3.15;79.17
12868;BME280;33517;49.866;8.320;2022-12-11T11:31:12;99887.28;;;3.03;79.25
12868;BME280;33517;49.866;8.320;2022-12-11T11:34:06;99883.84;;;2.93;79.63
12868;BME280;33517;49.866;8.320;2022-12-11T11:37:01;99886.13;;;2.86;79.62
12868;BME280;33517;49.866;8.320;2022-12-11T11:40:00;99875.94;;;2.73;79.45
12868;BME280;33517;49.866;8.320;2022-12-11T11:43:02;99875.13;;;2.73;80.33
12868;BME280;33517;49.866;8.320;2022-12-11T11:45:58;99871.56;;;2.74;79.81
12868;BME280;33517;49.866;8.320;2022-12-11T11:48:57;99863.75;;;2.74;80.13
12868;BME280;33517;49.866;8.320;2022-12-11T11:51:55;99864.31;;;2.77;79.80
12868;BME280;33517;49.866;8.320;2022-12-11T11:54:57;99860.66;;;2.80;79.62
12868;BME280;33517;49.866;8.320;2022-12-11T11:58:01;99868.44;;;2.80;80.05
12868;BME280;33517;49.866;8.320;2022-12-11T12:00:53;99868.44;;;2.80;79.98
12868;BME280;33517;49.866;8.320;2022-12-11T12:03:46;99874.13;;;2.44;80.55
12868;BME280;33517;49.866;8.320;2022-12-11T12:06:56;99872.22;;;2.46;80.87
12868;BME280;33517;49.866;8.320;2022-12-11T12:09:56;99863.22;;;2.50;80.79
12868;BME280;33517;49.866;8.320;2022-12-11T12:12:56;99862.09;;;2.43;80.95
12868;BME280;33517;49.866;8.320;2022-12-11T12:15:54;99862.59;;;2.37;81.02
12868;BME280;33517;49.866;8.320;2022-12-11T12:18:52;99871.13;;;2.28;81.37
12868;BME280;33517;49.866;8.320;2022-12-11T12:21:51;99863.91;;;2.11;81.08
12868;BME280;33517;49.866;8.320;2022-12-11T12:24:52;99859.72;;;1.99;82.07
12868;BME280;33517;49.866;8.320;2022-12-11T12:27:54;99854.75;;;1.96;82.10
12868;BME280;33517;49.866;8.320;2022-12-11T12:30:59;99856.66;;;1.94;82.22
12868;BME280;33517;49.866;8.320;2022-12-11T12:34:01;99855.84;;;1.93;81.79
12868;BME280;33517;49.866;8.320;2022-12-11T12:37:08;99859.31;;;2.14;82.58
12868;BME280;33517;49.866;8.320;2022-12-11T12:40:13;99859.47;;;2.02;82.16
12868;BME280;33517;49.866;8.320;2022-12-11T12:43:42;99851.94;;;2.19;82.74
12868;BME280;33517;49.866;8.320;2022-12-11T12:46:45;99849.16;;;2.32;82.15
12868;BME280;33517;49.866;8.320;2022-12-11T12:49:41;99853.66;;;2.30;82.30
12868;BME280;33517;49.866;8.320;2022-12-11T12:52:35;99853.00;;;2.17;82.02
12868;BME280;33517;49.866;8.320;2022-12-11T12:55:28;99856.31;;;2.19;82.21
12868;BME280;33517;49.866;8.320;2022-12-11T12:58:25;99849.72;;;1.94;82.30
12868;BME280;33517;49.866;8.320;2022-12-11T13:01:21;99849.34;;;1.99;82.55
12868;BME280;33517;49.866;8.320;2022-12-11T13:04:27;99850.13;;;2.10;82.54
12868;BME280;33517;49.866;8.320;2022-12-11T13:07:22;99852.81;;;2.09;82.12
12868;BME280;33517;49.866;8.320;2022-12-11T13:10:25;99852.31;;;1.94;82.90
12868;BME280;33517;49.866;8.320;2022-12-11T13:13:36;99851.75;;;2.11;83.05
12868;BME280;33517;49.866;8.320;2022-12-11T13:16:35;99854.03;;;2.05;82.90
12868;BME280;33517;49.866;8.320;2022-12-11T13:19:28;99850.28;;;2.18;83.11
12868;BME280;33517;49.866;8.320;2022-12-11T13:22:23;99858.28;;;2.26;82.57
12868;BME280;33517;49.866;8.320;2022-12-11T13:25:25;99855.06;;;2.34;82.21
12868;BME280;33517;49.866;8.320;2022-12-11T13:28:24;99854.28;;;2.02;83.22
12868;BME280;33517;49.866;8.320;2022-12-11T13:31:29;99847.81;;;2.17;83.71
12868;BME280;33517;49.866;8.320;2022-12-11T13:34:22;99842.91;;;2.34;82.62
12868;BME280;33517;49.866;8.320;2022-12-11T13:37:23;99846.06;;;2.38;81.89
12868;BME280;33517;49.866;8.320;2022-12-11T13:40:19;99846.88;;;2.38;82.79
12868;BME280;33517;49.866;8.320;2022-12-11T13:43:17;99840.06;;;2.37;81.88
12868;BME280;33517;49.866;8.320;2022-12-11T13:46:11;99843.94;;;2.43;81.67
12868;BME280;33517;49.866;8.320;2022-12-11T13:49:06;99853.16;;;2.36;81.96
12868;BME280;33517;49.866;8.320;2022-12-11T13:52:16;99852.72;;;2.31;82.07
12868;BME280;33517;49.866;8.320;2022-12-11T13:55:19;99850.25;;;2.29;82.06
12868;BME280;33517;49.866;8.320;2022-12-11T13:58:17;99855.53;;;2.28;82.14
12868;BME280;33517;49.866;8.320;2022-12-11T14:01:12;99860.44;;;2.21;82.39
12868;BME280;33517;49.866;8.320;2022-12-11T14:04:09;99860.44;;;2.21;81.94
12868;BME280;33517;49.866;8.320;2022-12-11T14:07:05;99862.34;;;2.19;82.34
12868;BME280;33517;49.866;8.320;2022-12-11T14:10:02;99868.16;;;2.12;82.46
12868;BME280;33517;49.866;8.320;2022-12-11T14:12:59;99862.09;;;1.91;82.57
12868;BME280;33517;49.866;8.320;2022-12-11T14:15:52;99868.81;;;1.93;83.48
12868;BME280;33517;49.866;8.320;2022-12-11T14:18:44;99866.53;;;1.68;84.12
12868;BME280;33517;49.866;8.320;2022-12-11T14:21:38;99868.66;;;1.74;84.18
12868;BME280;33517;49.866;8.320;2022-12-11T14:24:30;99865.06;;;1.86;84.07
12868;BME280;33517;49.866;8.320;2022-12-11T14:27:25;99873.19;;;1.93;83.57
12868;BME280;33517;49.866;8.320;2022-12-11T14:30:23;99871.03;;;1.98;83.38
12868;BME280;33517;49.866;8.320;2022-12-11T14:33:16;99881.19;;;1.89;83.34
12868;BME280;33517;49.866;8.320;2022-12-11T14:36:10;99875.34;;;1.76;84.24
12868;BME280;33517;49.866;8.320;2022-12-11T14:39:06;99872.31;;;1.71;84.32
12868;BME280;33517;49.866;8.320;2022-12-11T14:42:04;99877.31;;;1.84;84.41
12868;BME280;33517;49.866;8.320;2022-12-11T14:45:02;99886.72;;;1.64;85.14
12868;BME280;33517;49.866;8.320;2022-12-11T14:47:59;99887.09;;;1.49;85.92
12868;BME280;33517;49.866;8.320;2022-12-11T14:50:54;99889.09;;;1.56;85.74
12868;BME280;33517;49.866;8.320;2022-12-11T14:53:49;99890.97;;;1.54;85.92
12868;BME280;33517;49.866;8.320;2022-12-11T14:56:45;99885.63;;;1.67;85.41
12868;BME280;33517;49.866;8.320;2022-12-11T14:59:40;99886.16;;;1.39;85.60
12868;BME280;33517;49.866;8.320;2022-12-11T15:02:36;99895.25;;;1.22;87.39
12868;BME280;33517;49.866;8.320;2022-12-11T15:05:28;99892.66;;;1.33;87.02
12868;BME280;33517;49.866;8.320;2022-12-11T15:08:25;99894.06;;;1.37;86.72
12868;BME280;33517;49.866;8.320;2022-12-11T15:11:17;99888.66;;;1.29;87.63
12868;BME280;33517;49.866;8.320;2022-12-11T15:14:12;99891.84;;;1.11;88.25
12868;BME280;33517;49.866;8.320;2022-12-11T15:17:11;99890.56;;;1.05;89.36
12868;BME280;33517;49.866;8.320;2022-12-11T15:20:07;99883.34;;;1.20;89.18
12868;BME280;33517;49.866;8.320;2022-12-11T15:22:59;99894.28;;;1.34;88.77
12868;BME280;33517;49.866;8.320;2022-12-11T15:25:54;99896.41;;;1.40;87.93
12868;BME280;33517;49.866;8.320;2022-12-11T15:28:46;99890.63;;;1.48;87.13
12868;BME280;33517;49.866;8.320;2022-12-11T15:31:39;99883.53;;;1.50;86.88
12868;BME280;33517;49.866;8.320;2022-12-11T15:34:32;99888.16;;;1.46;86.51